sensor_id;sensor_type;location;lat;lon;timestamp;temperature;humidity
20366;DHT22;10341;49.894;8.822;2024-02-15T00:04:41;10.80;99.90
20366;DHT22;10341;49.894;8.822;2024-02-15T00:10:01;10.80;99.90
20366;DHT22;10341;49.894;8.822;2024-02-15T00:15:22;10.70;99.90
20366;DHT22;10341;49.894;8.822;2024-02-15T00:20:41;10.70;99.90
20366;DHT22;10341;49.894;8.822;2024-02-15T00:26:00;10.60;99.90
20366;DHT22;10341;49.894;8.822;2024-02-15T00:31:19;10.60;99.90
20366;DHT22;10341;49.894;8.822;2024-02-15T00:36:42;10.50;99.90
20366;DHT22;10341;49.894;8.822;2024-02-15T00:42:03;10.50;99.90
20366;DHT22;10341;49.894;8.822;2024-02-15T00:47:24;10.50;99.90
20366;DHT22;10341;49.894;8.822;2024-02-15T00:52:44;10.50;99.90
20366;DHT22;10341;49.894;8.822;2024-02-15T00:58:04;10.50;99.90
20366;DHT22;10341;49.894;8.822;2024-02-15T01:03:23;10.50;99.90
20366;DHT22;10341;49.894;8.822;2024-02-15T01:08:42;10.60;99.90
20366;DHT22;10341;49.894;8.822;2024-02-15T01:14:01;10.60;99.90
20366;DHT22;10341;49.894;8.822;2024-02-15T01:19:21;10.50;99.90
20366;DHT22;10341;49.894;8.822;2024-02-15T01:24:40;10.40;99.90
20366;DHT22;10341;49.894;8.822;2024-02-15T01:30:00;10.40;99.90
20366;DHT22;10341;49.894;8.822;2024-02-15T01:35:20;10.40;99.90
20366;DHT22;10341;49.894;8.822;2024-02-15T01:40:39;10.40;99.90
20366;DHT22;10341;49.894;8.822;2024-02-15T01:45:59;10.30;99.90
20366;DHT22;10341;49.894;8.822;2024-02-15T01:51:23;10.30;99.90
20366;DHT22;10341;49.894;8.822;2024-02-15T01:56:44;10.40;99.90
20366;DHT22;10341;49.894;8.822;2024-02-15T02:02:08;10.40;99.90
20366;DHT22;10341;49.894;8.822;2024-02-15T02:07:28;10.40;99.90
20366;DHT22;10341;49.894;8.822;2024-02-15T02:12:47;10.40;99.90
20366;DHT22;10341;49.894;8.822;2024-02-15T02:18:06;10.50;99.90
20366;DHT22;10341;49.894;8.822;2024-02-15T02:23:29;10.50;99.90
20366;DHT22;10341;49.894;8.822;2024-02-15T02:28:51;10.60;99.90
20366;DHT22;10341;49.894;8.822;2024-02-15T02:34:13;10.50;99.90
20366;DHT22;10341;49.894;8.822;2024-02-15T02:39:34;10.60;99.90
20366;DHT22;10341;49.894;8.822;2024-02-15T02:44:53;10.60;99.90
20366;DHT22;10341;49.894;8.822;2024-02-15T02:50:13;10.60;99.90
20366;DHT22;10341;49.894;8.822;2024-02-15T02:55:33;10.70;99.90
20366;DHT22;10341;49.894;8.822;2024-02-15T03:00:52;10.70;99.90
20366;DHT22;10341;49.894;8.822;2024-02-15T03:06:11;10.70;99.90
20366;DHT22;10341;49.894;8.822;2024-02-15T03:11:30;10.80;99.90
20366;DHT22;10341;49.894;8.822;2024-02-15T03:16:50;10.80;99.90
20366;DHT22;10341;49.894;8.822;2024-02-15T03:22:10;10.90;99.90
20366;DHT22;10341;49.894;8.822;2024-02-15T03:27:32;10.80;99.90
20366;DHT22;10341;49.894;8.822;2024-02-15T03:32:52;10.90;99.90
20366;DHT22;10341;49.894;8.822;2024-02-15T03:38:12;10.90;99.90
20366;DHT22;10341;49.894;8.822;2024-02-15T03:43:31;10.80;99.90
20366;DHT22;10341;49.894;8.822;2024-02-15T03:48:53;10.80;99.90
20366;DHT22;10341;49.894;8.822;2024-02-15T03:54:12;10.80;99.90
20366;DHT22;10341;49.894;8.822;2024-02-15T03:59:32;10.80;99.90
20366;DHT22;10341;49.894;8.822;2024-02-15T04:04:54;10.70;99.90
20366;DHT22;10341;49.894;8.822;2024-02-15T04:10:14;10.70;99.90
20366;DHT22;10341;49.894;8.822;2024-02-15T04:15:34;10.80;99.90
20366;DHT22;10341;49.894;8.822;2024-02-15T04:20:53;10.70;99.90
20366;DHT22;10341;49.894;8.822;2024-02-15T04:26:12;10.70;99.90
20366;DHT22;10341;49.894;8.822;2024-02-15T04:31:33;10.70;99.90
20366;DHT22;10341;49.894;8.822;2024-02-15T04:36:55;10.70;99.90
20366;DHT22;10341;49.894;8.822;2024-02-15T04:42:15;10.70;99.90
20366;DHT22;10341;49.894;8.822;2024-02-15T04:47:37;10.60;99.90
20366;DHT22;10341;49.894;8.822;2024-02-15T04:52:56;10.60;99.90
20366;DHT22;10341;49.894;8.822;2024-02-15T04:58:15;10.50;99.90
20366;DHT22;10341;49.894;8.822;2024-02-15T05:03:35;10.40;99.90
20366;DHT22;10341;49.894;8.822;2024-02-15T05:08:56;10.40;99.90
20366;DHT22;10341;49.894;8.822;2024-02-15T05:14:16;10.50;99.90
20366;DHT22;10341;49.894;8.822;2024-02-15T05:19:38;10.40;99.90
20366;DHT22;10341;49.894;8.822;2024-02-15T05:24:57;10.40;99.90
20366;DHT22;10341;49.894;8.822;2024-02-15T05:30:17;10.40;99.90
20366;DHT22;10341;49.894;8.822;2024-02-15T05:35:37;10.40;99.90
20366;DHT22;10341;49.894;8.822;2024-02-15T05:40:58;10.40;99.90
20366;DHT22;10341;49.894;8.822;2024-02-15T05:46:17;10.40;99.90
20366;DHT22;10341;49.894;8.822;2024-02-15T05:51:37;10.40;99.90
20366;DHT22;10341;49.894;8.822;2024-02-15T05:56:56;10.40;99.90
20366;DHT22;10341;49.894;8.822;2024-02-15T06:02:20;10.50;99.90
20366;DHT22;10341;49.894;8.822;2024-02-15T06:07:39;10.50;99.90
20366;DHT22;10341;49.894;8.822;2024-02-15T06:12:59;10.40;99.90
20366;DHT22;10341;49.894;8.822;2024-02-15T06:18:26;10.30;99.90
20366;DHT22;10341;49.894;8.822;2024-02-15T06:23:47;10.30;99.90
20366;DHT22;10341;49.894;8.822;2024-02-15T06:29:09;10.30;99.90
20366;DHT22;10341;49.894;8.822;2024-02-15T06:34:47;10.30;99.90
20366;DHT22;10341;49.894;8.822;2024-02-15T06:40:25;10.30;99.90
20366;DHT22;10341;49.894;8.822;2024-02-15T06:45:44;10.30;99.90
20366;DHT22;10341;49.894;8.822;2024-02-15T06:51:05;10.30;99.90
20366;DHT22;10341;49.894;8.822;2024-02-15T06:56:27;10.30;99.90
20366;DHT22;10341;49.894;8.822;2024-02-15T07:01:46;10.30;99.90
20366;DHT22;10341;49.894;8.822;2024-02-15T07:07:06;10.40;99.90
20366;DHT22;10341;49.894;8.822;2024-02-15T07:12:26;10.40;99.90
20366;DHT22;10341;49.894;8.822;2024-02-15T07:17:45;10.50;99.90
20366;DHT22;10341;49.894;8.822;2024-02-15T07:23:06;10.50;99.90
20366;DHT22;10341;49.894;8.822;2024-02-15T07:28:25;10.60;99.90
20366;DHT22;10341;49.894;8.822;2024-02-15T07:33:45;10.50;99.90
20366;DHT22;10341;49.894;8.822;2024-02-15T07:39:04;10.60;99.90
20366;DHT22;10341;49.894;8.822;2024-02-15T07:44:24;10.70;99.90
20366;DHT22;10341;49.894;8.822;2024-02-15T07:49:43;10.80;99.90
20366;DHT22;10341;49.894;8.822;2024-02-15T07:55:02;10.90;99.90
20366;DHT22;10341;49.894;8.822;2024-02-15T08:00:27;11.10;99.90
20366;DHT22;10341;49.894;8.822;2024-02-15T08:05:47;11.20;99.90
20366;DHT22;10341;49.894;8.822;2024-02-15T08:11:07;11.30;99.90
20366;DHT22;10341;49.894;8.822;2024-02-15T08:16:33;11.50;99.90
20366;DHT22;10341;49.894;8.822;2024-02-15T08:21:53;11.60;99.90
20366;DHT22;10341;49.894;8.822;2024-02-15T08:27:13;11.70;99.90
20366;DHT22;10341;49.894;8.822;2024-02-15T08:32:32;11.90;99.90
20366;DHT22;10341;49.894;8.822;2024-02-15T08:37:51;12.00;99.90
20366;DHT22;10341;49.894;8.822;2024-02-15T08:43:12;12.00;99.90
20366;DHT22;10341;49.894;8.822;2024-02-15T08:48:32;12.20;99.90
20366;DHT22;10341;49.894;8.822;2024-02-15T08:53:52;12.20;99.90
20366;DHT22;10341;49.894;8.822;2024-02-15T08:59:12;12.40;99.90
20366;DHT22;10341;49.894;8.822;2024-02-15T09:04:31;12.60;99.90
20366;DHT22;10341;49.894;8.822;2024-02-15T09:09:50;12.70;99.90
20366;DHT22;10341;49.894;8.822;2024-02-15T09:15:10;12.90;99.90
20366;DHT22;10341;49.894;8.822;2024-02-15T09:20:33;13.10;99.90
20366;DHT22;10341;49.894;8.822;2024-02-15T09:25:52;13.50;99.90
20366;DHT22;10341;49.894;8.822;2024-02-15T09:31:12;13.70;99.90
20366;DHT22;10341;49.894;8.822;2024-02-15T09:36:36;14.00;99.90
20366;DHT22;10341;49.894;8.822;2024-02-15T09:41:58;14.30;99.90
20366;DHT22;10341;49.894;8.822;2024-02-15T09:47:18;14.30;99.90
20366;DHT22;10341;49.894;8.822;2024-02-15T09:52:39;14.80;99.90
20366;DHT22;10341;49.894;8.822;2024-02-15T09:58:00;14.90;99.90
20366;DHT22;10341;49.894;8.822;2024-02-15T10:03:25;14.80;99.90
20366;DHT22;10341;49.894;8.822;2024-02-15T10:08:47;15.40;99.90
20366;DHT22;10341;49.894;8.822;2024-02-15T10:14:10;15.90;99.90
20366;DHT22;10341;49.894;8.822;2024-02-15T10:19:29;16.00;99.90
20366;DHT22;10341;49.894;8.822;2024-02-15T10:25:10;16.00;99.90
20366;DHT22;10341;49.894;8.822;2024-02-15T10:30:30;16.10;99.90
20366;DHT22;10341;49.894;8.822;2024-02-15T10:36:07;17.00;99.90
20366;DHT22;10341;49.894;8.822;2024-02-15T10:41:27;17.90;99.90
20366;DHT22;10341;49.894;8.822;2024-02-15T10:46:48;18.90;99.90
20366;DHT22;10341;49.894;8.822;2024-02-15T10:52:12;19.70;99.90
20366;DHT22;10341;49.894;8.822;2024-02-15T10:57:37;20.00;99.90
20366;DHT22;10341;49.894;8.822;2024-02-15T11:03:01;21.30;99.90
20366;DHT22;10341;49.894;8.822;2024-02-15T11:08:21;22.00;99.90
20366;DHT22;10341;49.894;8.822;2024-02-15T11:13:41;22.70;99.90
20366;DHT22;10341;49.894;8.822;2024-02-15T11:19:03;22.80;99.10
20366;DHT22;10341;49.894;8.822;2024-02-15T11:24:29;23.80;97.70
20366;DHT22;10341;49.894;8.822;2024-02-15T11:29:56;23.70;95.60
20366;DHT22;10341;49.894;8.822;2024-02-15T11:35:34;22.90;96.90
20366;DHT22;10341;49.894;8.822;2024-02-15T11:46:18;23.20;96.40
20366;DHT22;10341;49.894;8.822;2024-02-15T11:51:37;24.10;96.20
20366;DHT22;10341;49.894;8.822;2024-02-15T11:57:01;22.90;96.10
20366;DHT22;10341;49.894;8.822;2024-02-15T12:02:26;22.60;96.30
20366;DHT22;10341;49.894;8.822;2024-02-15T12:08:04;22.20;95.60
20366;DHT22;10341;49.894;8.822;2024-02-15T12:13:42;21.40;97.20
20366;DHT22;10341;49.894;8.822;2024-02-15T12:19:20;21.60;97.70
20366;DHT22;10341;49.894;8.822;2024-02-15T12:24:41;22.00;96.60
20366;DHT22;10341;49.894;8.822;2024-02-15T12:30:00;21.20;98.70
20366;DHT22;10341;49.894;8.822;2024-02-15T12:35:20;22.10;96.50
20366;DHT22;10341;49.894;8.822;2024-02-15T12:40:39;22.00;96.60
20366;DHT22;10341;49.894;8.822;2024-02-15T12:45:59;21.00;98.10
20366;DHT22;10341;49.894;8.822;2024-02-15T12:51:19;20.10;99.90
20366;DHT22;10341;49.894;8.822;2024-02-15T12:56:40;20.10;99.90
20366;DHT22;10341;49.894;8.822;2024-02-15T13:01:59;20.00;99.90
20366;DHT22;10341;49.894;8.822;2024-02-15T13:07:18;19.90;99.90
20366;DHT22;10341;49.894;8.822;2024-02-15T13:12:38;19.20;99.90
20366;DHT22;10341;49.894;8.822;2024-02-15T13:17:58;18.80;99.90
20366;DHT22;10341;49.894;8.822;2024-02-15T13:23:18;18.80;99.90
20366;DHT22;10341;49.894;8.822;2024-02-15T13:28:44;19.00;99.90
20366;DHT22;10341;49.894;8.822;2024-02-15T13:34:03;18.80;99.90
20366;DHT22;10341;49.894;8.822;2024-02-15T13:39:22;18.40;99.90
20366;DHT22;10341;49.894;8.822;2024-02-15T13:44:45;18.30;99.90
20366;DHT22;10341;49.894;8.822;2024-02-15T13:50:05;18.20;99.90
20366;DHT22;10341;49.894;8.822;2024-02-15T13:55:27;17.90;99.90
20366;DHT22;10341;49.894;8.822;2024-02-15T14:00:48;17.90;99.90
20366;DHT22;10341;49.894;8.822;2024-02-15T14:06:07;17.80;99.90
20366;DHT22;10341;49.894;8.822;2024-02-15T14:11:27;17.60;99.90
20366;DHT22;10341;49.894;8.822;2024-02-15T14:16:46;17.60;99.90
20366;DHT22;10341;49.894;8.822;2024-02-15T14:22:06;17.20;99.90
20366;DHT22;10341;49.894;8.822;2024-02-15T14:27:28;17.00;99.90
20366;DHT22;10341;49.894;8.822;2024-02-15T14:32:48;17.00;99.90
20366;DHT22;10341;49.894;8.822;2024-02-15T14:38:19;16.90;99.90
20366;DHT22;10341;49.894;8.822;2024-02-15T14:43:39;16.90;99.90
20366;DHT22;10341;49.894;8.822;2024-02-15T14:48:59;16.80;99.90
20366;DHT22;10341;49.894;8.822;2024-02-15T14:54:18;16.70;99.90
20366;DHT22;10341;49.894;8.822;2024-02-15T14:59:38;16.80;99.90
20366;DHT22;10341;49.894;8.822;2024-02-15T15:04:58;16.60;99.90
20366;DHT22;10341;49.894;8.822;2024-02-15T15:10:36;16.50;99.90
20366;DHT22;10341;49.894;8.822;2024-02-15T15:16:14;16.50;99.90
20366;DHT22;10341;49.894;8.822;2024-02-15T15:21:37;16.50;99.90
20366;DHT22;10341;49.894;8.822;2024-02-15T15:26:56;16.30;99.90
20366;DHT22;10341;49.894;8.822;2024-02-15T15:32:15;16.30;99.90
20366;DHT22;10341;49.894;8.822;2024-02-15T15:37:34;16.20;99.90
20366;DHT22;10341;49.894;8.822;2024-02-15T15:42:55;16.10;99.90
20366;DHT22;10341;49.894;8.822;2024-02-15T15:48:14;15.90;99.90
20366;DHT22;10341;49.894;8.822;2024-02-15T15:53:34;15.80;99.90
20366;DHT22;10341;49.894;8.822;2024-02-15T15:58:54;15.70;99.90
20366;DHT22;10341;49.894;8.822;2024-02-15T16:04:17;15.50;99.90
20366;DHT22;10341;49.894;8.822;2024-02-15T16:09:36;15.40;99.90
20366;DHT22;10341;49.894;8.822;2024-02-15T16:14:56;15.30;99.90
20366;DHT22;10341;49.894;8.822;2024-02-15T16:20:15;15.10;99.90
20366;DHT22;10341;49.894;8.822;2024-02-15T16:25:34;15.00;99.90
20366;DHT22;10341;49.894;8.822;2024-02-15T16:30:54;14.80;99.90
20366;DHT22;10341;49.894;8.822;2024-02-15T16:36:13;14.60;99.90
20366;DHT22;10341;49.894;8.822;2024-02-15T16:41:34;14.40;99.90
20366;DHT22;10341;49.894;8.822;2024-02-15T16:46:54;14.20;99.90
20366;DHT22;10341;49.894;8.822;2024-02-15T16:52:13;14.10;99.90
20366;DHT22;10341;49.894;8.822;2024-02-15T16:57:37;13.90;99.90
20366;DHT22;10341;49.894;8.822;2024-02-15T17:02:57;13.80;99.90
20366;DHT22;10341;49.894;8.822;2024-02-15T17:08:17;13.70;99.90
20366;DHT22;10341;49.894;8.822;2024-02-15T17:13:36;13.50;99.90
20366;DHT22;10341;49.894;8.822;2024-02-15T17:19:00;13.50;99.90
20366;DHT22;10341;49.894;8.822;2024-02-15T17:24:21;13.30;99.90
20366;DHT22;10341;49.894;8.822;2024-02-15T17:29:40;13.20;99.90
20366;DHT22;10341;49.894;8.822;2024-02-15T17:35:00;13.00;99.90
20366;DHT22;10341;49.894;8.822;2024-02-15T17:40:20;13.00;99.90
20366;DHT22;10341;49.894;8.822;2024-02-15T17:45:39;12.90;99.90
20366;DHT22;10341;49.894;8.822;2024-02-15T17:50:58;12.80;99.90
20366;DHT22;10341;49.894;8.822;2024-02-15T17:56:18;12.60;99.90
20366;DHT22;10341;49.894;8.822;2024-02-15T18:01:37;12.60;99.90
20366;DHT22;10341;49.894;8.822;2024-02-15T18:06:58;12.60;99.90
20366;DHT22;10341;49.894;8.822;2024-02-15T18:12:17;12.60;99.90
20366;DHT22;10341;49.894;8.822;2024-02-15T18:17:41;12.70;99.90
20366;DHT22;10341;49.894;8.822;2024-02-15T18:23:03;12.60;99.90
20366;DHT22;10341;49.894;8.822;2024-02-15T18:28:22;12.70;99.90
20366;DHT22;10341;49.894;8.822;2024-02-15T18:33:44;12.60;99.90
20366;DHT22;10341;49.894;8.822;2024-02-15T18:39:04;12.60;99.90
20366;DHT22;10341;49.894;8.822;2024-02-15T18:44:24;12.50;99.90
20366;DHT22;10341;49.894;8.822;2024-02-15T18:49:44;12.40;99.90
20366;DHT22;10341;49.894;8.822;2024-02-15T18:55:04;12.40;99.90
20366;DHT22;10341;49.894;8.822;2024-02-15T19:00:23;12.40;99.90
20366;DHT22;10341;49.894;8.822;2024-02-15T19:05:43;12.40;99.90
20366;DHT22;10341;49.894;8.822;2024-02-15T19:11:03;12.30;99.90
20366;DHT22;10341;49.894;8.822;2024-02-15T19:16:23;12.20;99.90
20366;DHT22;10341;49.894;8.822;2024-02-15T19:21:46;12.20;99.90
20366;DHT22;10341;49.894;8.822;2024-02-15T19:27:06;12.10;99.90
20366;DHT22;10341;49.894;8.822;2024-02-15T19:32:26;12.00;99.90
20366;DHT22;10341;49.894;8.822;2024-02-15T19:37:49;11.90;99.90
20366;DHT22;10341;49.894;8.822;2024-02-15T19:43:08;11.80;99.90
20366;DHT22;10341;49.894;8.822;2024-02-15T19:48:28;11.80;99.90
20366;DHT22;10341;49.894;8.822;2024-02-15T19:53:48;11.70;99.90
20366;DHT22;10341;49.894;8.822;2024-02-15T19:59:08;11.70;99.90
20366;DHT22;10341;49.894;8.822;2024-02-15T20:04:28;11.40;99.90
20366;DHT22;10341;49.894;8.822;2024-02-15T20:09:50;11.40;99.90
20366;DHT22;10341;49.894;8.822;2024-02-15T20:15:10;11.20;99.90
20366;DHT22;10341;49.894;8.822;2024-02-15T20:20:30;11.10;99.90
20366;DHT22;10341;49.894;8.822;2024-02-15T20:25:50;11.00;99.90
20366;DHT22;10341;49.894;8.822;2024-02-15T20:31:09;10.90;99.90
20366;DHT22;10341;49.894;8.822;2024-02-15T20:36:28;10.90;99.90
20366;DHT22;10341;49.894;8.822;2024-02-15T20:41:47;10.90;99.90
20366;DHT22;10341;49.894;8.822;2024-02-15T20:47:08;10.90;99.90
20366;DHT22;10341;49.894;8.822;2024-02-15T20:52:30;11.00;99.90
20366;DHT22;10341;49.894;8.822;2024-02-15T20:57:51;11.10;99.90
20366;DHT22;10341;49.894;8.822;2024-02-15T21:03:12;11.20;99.90
20366;DHT22;10341;49.894;8.822;2024-02-15T21:08:31;11.20;99.90
20366;DHT22;10341;49.894;8.822;2024-02-15T21:13:52;11.20;99.90
20366;DHT22;10341;49.894;8.822;2024-02-15T21:19:12;11.20;99.90
20366;DHT22;10341;49.894;8.822;2024-02-15T21:24:31;11.20;99.90
20366;DHT22;10341;49.894;8.822;2024-02-15T21:29:51;11.20;99.90
20366;DHT22;10341;49.894;8.822;2024-02-15T21:35:11;11.30;99.90
20366;DHT22;10341;49.894;8.822;2024-02-15T21:40:30;11.40;99.90
20366;DHT22;10341;49.894;8.822;2024-02-15T21:45:49;11.30;99.90
20366;DHT22;10341;49.894;8.822;2024-02-15T21:51:09;11.10;99.90
20366;DHT22;10341;49.894;8.822;2024-02-15T21:56:28;11.00;99.90
20366;DHT22;10341;49.894;8.822;2024-02-15T22:01:47;10.90;99.90
20366;DHT22;10341;49.894;8.822;2024-02-15T22:07:07;10.90;99.90
20366;DHT22;10341;49.894;8.822;2024-02-15T22:12:27;10.90;99.90
20366;DHT22;10341;49.894;8.822;2024-02-15T22:17:46;10.80;99.90
20366;DHT22;10341;49.894;8.822;2024-02-15T22:23:05;10.80;99.90
20366;DHT22;10341;49.894;8.822;2024-02-15T22:28:24;10.80;99.90
20366;DHT22;10341;49.894;8.822;2024-02-15T22:33:44;10.70;99.90
20366;DHT22;10341;49.894;8.822;2024-02-15T22:39:04;10.70;99.90
20366;DHT22;10341;49.894;8.822;2024-02-15T22:44:26;10.60;99.90
20366;DHT22;10341;49.894;8.822;2024-02-15T22:49:45;10.60;99.90
20366;DHT22;10341;49.894;8.822;2024-02-15T22:55:04;10.50;99.90
20366;DHT22;10341;49.894;8.822;2024-02-15T23:00:24;10.40;99.90
20366;DHT22;10341;49.894;8.822;2024-02-15T23:05:45;10.40;99.90
20366;DHT22;10341;49.894;8.822;2024-02-15T23:11:04;10.30;99.90
20366;DHT22;10341;49.894;8.822;2024-02-15T23:16:25;10.30;99.90
20366;DHT22;10341;49.894;8.822;2024-02-15T23:21:44;10.30;99.90
20366;DHT22;10341;49.894;8.822;2024-02-15T23:27:04;10.40;99.90
20366;DHT22;10341;49.894;8.822;2024-02-15T23:32:23;10.30;99.90
20366;DHT22;10341;49.894;8.822;2024-02-15T23:37:43;10.30;99.90
20366;DHT22;10341;49.894;8.822;2024-02-15T23:43:20;10.30;99.90
20366;DHT22;10341;49.894;8.822;2024-02-15T23:48:40;10.30;99.90
20366;DHT22;10341;49.894;8.822;2024-02-15T23:53:59;10.20;99.90
20366;DHT22;10341;49.894;8.822;2024-02-15T23:59:20;10.20;99.90
